sensor_id;sensor_type;location;lat;lon;timestamp;temperature;humidity
18753;DHT22;9505;50.882;5.350;2023-03-01T00:01:40;-0.30;99.90
18753;DHT22;9505;50.882;5.350;2023-03-01T00:04:05;-0.30;99.90
18753;DHT22;9505;50.882;5.350;2023-03-01T00:06:31;-0.30;99.90
18753;DHT22;9505;50.882;5.350;2023-03-01T00:08:57;-0.40;99.90
18753;DHT22;9505;50.882;5.350;2023-03-01T00:11:25;-0.40;99.90
18753;DHT22;9505;50.882;5.350;2023-03-01T00:13:53;-0.50;99.90
18753;DHT22;9505;50.882;5.350;2023-03-01T00:16:31;-0.50;99.90
18753;DHT22;9505;50.882;5.350;2023-03-01T00:18:59;-0.60;99.90
18753;DHT22;9505;50.882;5.350;2023-03-01T00:21:25;-0.60;99.90
18753;DHT22;9505;50.882;5.350;2023-03-01T00:23:51;-0.70;99.90
18753;DHT22;9505;50.882;5.350;2023-03-01T00:26:19;-0.70;99.90
18753;DHT22;9505;50.882;5.350;2023-03-01T00:28:45;-0.90;99.90
18753;DHT22;9505;50.882;5.350;2023-03-01T00:31:15;-1.00;99.90
18753;DHT22;9505;50.882;5.350;2023-03-01T00:33:41;-1.10;99.90
18753;DHT22;9505;50.882;5.350;2023-03-01T00:36:08;-1.20;99.90
18753;DHT22;9505;50.882;5.350;2023-03-01T00:38:35;-1.20;99.90
18753;DHT22;9505;50.882;5.350;2023-03-01T00:41:06;-1.30;99.90
18753;DHT22;9505;50.882;5.350;2023-03-01T00:43:32;-1.30;99.90
18753;DHT22;9505;50.882;5.350;2023-03-01T00:46:03;-1.40;99.90
18753;DHT22;9505;50.882;5.350;2023-03-01T00:48:28;-1.40;99.90
18753;DHT22;9505;50.882;5.350;2023-03-01T00:50:54;-1.30;99.90
18753;DHT22;9505;50.882;5.350;2023-03-01T00:53:20;-1.20;99.90
18753;DHT22;9505;50.882;5.350;2023-03-01T00:55:45;-1.10;99.90
18753;DHT22;9505;50.882;5.350;2023-03-01T00:58:11;-1.00;99.90
18753;DHT22;9505;50.882;5.350;2023-03-01T01:00:36;-0.90;99.90
18753;DHT22;9505;50.882;5.350;2023-03-01T01:03:02;-0.90;99.90
18753;DHT22;9505;50.882;5.350;2023-03-01T01:05:28;-0.80;99.90
18753;DHT22;9505;50.882;5.350;2023-03-01T01:07:53;-0.80;99.90
18753;DHT22;9505;50.882;5.350;2023-03-01T01:10:19;-0.70;99.90
18753;DHT22;9505;50.882;5.350;2023-03-01T01:12:45;-0.70;99.90
18753;DHT22;9505;50.882;5.350;2023-03-01T01:15:11;-0.70;99.90
18753;DHT22;9505;50.882;5.350;2023-03-01T01:17:39;-0.60;99.90
18753;DHT22;9505;50.882;5.350;2023-03-01T01:20:05;-0.60;99.90
18753;DHT22;9505;50.882;5.350;2023-03-01T01:22:31;-0.70;99.90
18753;DHT22;9505;50.882;5.350;2023-03-01T01:24:56;-0.70;99.90
18753;DHT22;9505;50.882;5.350;2023-03-01T01:27:22;-0.70;99.90
18753;DHT22;9505;50.882;5.350;2023-03-01T01:29:48;-0.70;99.90
18753;DHT22;9505;50.882;5.350;2023-03-01T01:32:13;-0.70;99.90
18753;DHT22;9505;50.882;5.350;2023-03-01T01:34:39;-0.70;99.90
18753;DHT22;9505;50.882;5.350;2023-03-01T01:37:05;-0.70;99.90
18753;DHT22;9505;50.882;5.350;2023-03-01T01:39:34;-0.70;99.90
18753;DHT22;9505;50.882;5.350;2023-03-01T01:42:00;-0.70;99.90
18753;DHT22;9505;50.882;5.350;2023-03-01T01:44:28;-0.80;99.90
18753;DHT22;9505;50.882;5.350;2023-03-01T01:54:42;-1.20;99.90
18753;DHT22;9505;50.882;5.350;2023-03-01T01:57:16;-1.30;99.90
18753;DHT22;9505;50.882;5.350;2023-03-01T01:59:45;-1.40;99.90
18753;DHT22;9505;50.882;5.350;2023-03-01T02:02:12;-1.50;99.90
18753;DHT22;9505;50.882;5.350;2023-03-01T02:04:39;-1.60;99.90
18753;DHT22;9505;50.882;5.350;2023-03-01T02:09:35;-1.70;99.90
18753;DHT22;9505;50.882;5.350;2023-03-01T02:12:02;-1.70;99.90
18753;DHT22;9505;50.882;5.350;2023-03-01T02:14:28;-1.80;99.90
18753;DHT22;9505;50.882;5.350;2023-03-01T02:16:54;-1.90;99.90
18753;DHT22;9505;50.882;5.350;2023-03-01T02:19:38;-1.90;99.90
18753;DHT22;9505;50.882;5.350;2023-03-01T02:22:18;-1.90;99.90
18753;DHT22;9505;50.882;5.350;2023-03-01T02:27:10;-2.10;99.90
18753;DHT22;9505;50.882;5.350;2023-03-01T02:29:36;-2.10;99.90
18753;DHT22;9505;50.882;5.350;2023-03-01T02:32:02;-2.20;99.90
18753;DHT22;9505;50.882;5.350;2023-03-01T02:34:30;-2.30;99.90
18753;DHT22;9505;50.882;5.350;2023-03-01T02:37:14;-2.40;99.90
18753;DHT22;9505;50.882;5.350;2023-03-01T02:39:43;-2.40;99.90
18753;DHT22;9505;50.882;5.350;2023-03-01T02:42:13;-2.50;99.90
18753;DHT22;9505;50.882;5.350;2023-03-01T02:44:39;-2.50;99.90
18753;DHT22;9505;50.882;5.350;2023-03-01T02:47:05;-2.60;99.90
18753;DHT22;9505;50.882;5.350;2023-03-01T02:49:34;-2.60;99.90
18753;DHT22;9505;50.882;5.350;2023-03-01T02:54:48;-2.70;99.90
18753;DHT22;9505;50.882;5.350;2023-03-01T02:57:16;-2.80;99.90
18753;DHT22;9505;50.882;5.350;2023-03-01T02:59:43;-2.90;99.90
18753;DHT22;9505;50.882;5.350;2023-03-01T03:02:19;-2.90;99.90
18753;DHT22;9505;50.882;5.350;2023-03-01T03:04:46;-3.00;99.90
18753;DHT22;9505;50.882;5.350;2023-03-01T03:07:12;-3.00;99.90
18753;DHT22;9505;50.882;5.350;2023-03-01T03:09:37;-3.00;99.90
18753;DHT22;9505;50.882;5.350;2023-03-01T03:12:03;-3.00;99.90
18753;DHT22;9505;50.882;5.350;2023-03-01T03:14:29;-3.00;99.90
18753;DHT22;9505;50.882;5.350;2023-03-01T03:16:54;-3.00;99.90
18753;DHT22;9505;50.882;5.350;2023-03-01T03:19:20;-3.00;99.90
18753;DHT22;9505;50.882;5.350;2023-03-01T03:21:46;-3.10;99.90
18753;DHT22;9505;50.882;5.350;2023-03-01T03:24:11;-3.10;99.90
18753;DHT22;9505;50.882;5.350;2023-03-01T03:26:37;-3.20;99.90
18753;DHT22;9505;50.882;5.350;2023-03-01T03:29:03;-3.20;99.90
18753;DHT22;9505;50.882;5.350;2023-03-01T03:31:29;-3.20;99.90
18753;DHT22;9505;50.882;5.350;2023-03-01T03:33:54;-3.20;99.90
18753;DHT22;9505;50.882;5.350;2023-03-01T03:36:22;-3.20;99.90
18753;DHT22;9505;50.882;5.350;2023-03-01T03:38:48;-3.20;99.90
18753;DHT22;9505;50.882;5.350;2023-03-01T03:41:14;-3.10;99.90
18753;DHT22;9505;50.882;5.350;2023-03-01T03:43:42;-3.00;99.90
18753;DHT22;9505;50.882;5.350;2023-03-01T03:46:09;-2.90;99.90
18753;DHT22;9505;50.882;5.350;2023-03-01T03:48:38;-2.80;99.90
18753;DHT22;9505;50.882;5.350;2023-03-01T03:51:04;-2.60;99.90
18753;DHT22;9505;50.882;5.350;2023-03-01T03:53:32;-2.50;99.90
18753;DHT22;9505;50.882;5.350;2023-03-01T03:55:58;-2.50;99.90
18753;DHT22;9505;50.882;5.350;2023-03-01T03:58:24;-2.40;99.90
18753;DHT22;9505;50.882;5.350;2023-03-01T04:00:54;-2.50;99.90
18753;DHT22;9505;50.882;5.350;2023-03-01T04:03:25;-2.50;99.90
18753;DHT22;9505;50.882;5.350;2023-03-01T04:05:52;-2.50;99.90
18753;DHT22;9505;50.882;5.350;2023-03-01T04:08:19;-2.50;99.90
18753;DHT22;9505;50.882;5.350;2023-03-01T04:10:48;-2.50;99.90
18753;DHT22;9505;50.882;5.350;2023-03-01T04:13:19;-2.50;99.90
18753;DHT22;9505;50.882;5.350;2023-03-01T04:15:49;-2.50;99.90
18753;DHT22;9505;50.882;5.350;2023-03-01T04:18:16;-2.40;99.90
18753;DHT22;9505;50.882;5.350;2023-03-01T04:20:43;-2.50;99.90
18753;DHT22;9505;50.882;5.350;2023-03-01T04:28:19;-2.40;99.90
18753;DHT22;9505;50.882;5.350;2023-03-01T04:30:45;-2.30;99.90
18753;DHT22;9505;50.882;5.350;2023-03-01T04:33:11;-2.30;99.90
18753;DHT22;9505;50.882;5.350;2023-03-01T04:35:37;-2.30;99.90
18753;DHT22;9505;50.882;5.350;2023-03-01T04:38:04;-2.20;99.90
18753;DHT22;9505;50.882;5.350;2023-03-01T04:40:30;-2.20;99.90
18753;DHT22;9505;50.882;5.350;2023-03-01T04:42:56;-2.20;99.90
18753;DHT22;9505;50.882;5.350;2023-03-01T04:45:22;-2.20;99.90
18753;DHT22;9505;50.882;5.350;2023-03-01T04:47:48;-2.20;99.90
18753;DHT22;9505;50.882;5.350;2023-03-01T04:50:17;-2.20;99.90
18753;DHT22;9505;50.882;5.350;2023-03-01T04:52:46;-2.20;99.90
18753;DHT22;9505;50.882;5.350;2023-03-01T04:55:12;-2.20;99.90
18753;DHT22;9505;50.882;5.350;2023-03-01T04:57:38;-2.30;99.90
18753;DHT22;9505;50.882;5.350;2023-03-01T05:00:06;-2.30;99.90
18753;DHT22;9505;50.882;5.350;2023-03-01T05:02:56;-2.30;99.90
18753;DHT22;9505;50.882;5.350;2023-03-01T05:05:27;-2.40;99.90
18753;DHT22;9505;50.882;5.350;2023-03-01T05:07:55;-2.40;99.90
18753;DHT22;9505;50.882;5.350;2023-03-01T05:10:21;-2.40;99.90
18753;DHT22;9505;50.882;5.350;2023-03-01T05:12:47;-2.40;99.90
18753;DHT22;9505;50.882;5.350;2023-03-01T05:15:13;-2.40;99.90
18753;DHT22;9505;50.882;5.350;2023-03-01T05:17:39;-2.40;99.90
18753;DHT22;9505;50.882;5.350;2023-03-01T05:20:05;-2.40;99.90
18753;DHT22;9505;50.882;5.350;2023-03-01T05:22:34;-2.40;99.90
18753;DHT22;9505;50.882;5.350;2023-03-01T05:25:01;-2.50;99.90
18753;DHT22;9505;50.882;5.350;2023-03-01T05:27:27;-2.50;99.90
18753;DHT22;9505;50.882;5.350;2023-03-01T05:29:52;-2.50;99.90
18753;DHT22;9505;50.882;5.350;2023-03-01T05:32:18;-2.50;99.90
18753;DHT22;9505;50.882;5.350;2023-03-01T05:34:43;-2.60;99.90
18753;DHT22;9505;50.882;5.350;2023-03-01T05:37:11;-2.60;99.90
18753;DHT22;9505;50.882;5.350;2023-03-01T05:39:37;-2.60;99.90
18753;DHT22;9505;50.882;5.350;2023-03-01T05:42:04;-2.60;99.90
18753;DHT22;9505;50.882;5.350;2023-03-01T05:44:30;-2.60;99.90
18753;DHT22;9505;50.882;5.350;2023-03-01T05:46:56;-2.70;99.90
18753;DHT22;9505;50.882;5.350;2023-03-01T05:49:22;-2.80;99.90
18753;DHT22;9505;50.882;5.350;2023-03-01T05:51:52;-2.80;99.90
18753;DHT22;9505;50.882;5.350;2023-03-01T05:54:19;-2.90;99.90
18753;DHT22;9505;50.882;5.350;2023-03-01T05:56:45;-3.00;99.90
18753;DHT22;9505;50.882;5.350;2023-03-01T05:59:11;-3.00;99.90
18753;DHT22;9505;50.882;5.350;2023-03-01T06:01:37;-2.90;99.90
18753;DHT22;9505;50.882;5.350;2023-03-01T06:04:04;-2.90;99.90
18753;DHT22;9505;50.882;5.350;2023-03-01T06:06:33;-2.80;99.90
18753;DHT22;9505;50.882;5.350;2023-03-01T06:08:58;-2.80;99.90
18753;DHT22;9505;50.882;5.350;2023-03-01T06:11:24;-2.80;99.90
18753;DHT22;9505;50.882;5.350;2023-03-01T06:13:50;-2.70;99.90
18753;DHT22;9505;50.882;5.350;2023-03-01T06:16:15;-2.70;99.90
18753;DHT22;9505;50.882;5.350;2023-03-01T06:18:41;-2.70;99.90
18753;DHT22;9505;50.882;5.350;2023-03-01T06:21:08;-2.80;99.90
18753;DHT22;9505;50.882;5.350;2023-03-01T06:23:34;-2.70;99.90
18753;DHT22;9505;50.882;5.350;2023-03-01T06:26:00;-2.80;99.90
18753;DHT22;9505;50.882;5.350;2023-03-01T06:28:26;-2.80;99.90
18753;DHT22;9505;50.882;5.350;2023-03-01T06:30:52;-2.80;99.90
18753;DHT22;9505;50.882;5.350;2023-03-01T06:33:18;-2.80;99.90
18753;DHT22;9505;50.882;5.350;2023-03-01T06:35:46;-2.80;99.90
18753;DHT22;9505;50.882;5.350;2023-03-01T06:38:12;-2.90;99.90
18753;DHT22;9505;50.882;5.350;2023-03-01T06:40:40;-2.90;99.90
18753;DHT22;9505;50.882;5.350;2023-03-01T06:43:06;-2.90;99.90
18753;DHT22;9505;50.882;5.350;2023-03-01T06:45:33;-2.80;99.90
18753;DHT22;9505;50.882;5.350;2023-03-01T06:48:05;-2.80;99.90
18753;DHT22;9505;50.882;5.350;2023-03-01T06:50:31;-2.80;99.90
18753;DHT22;9505;50.882;5.350;2023-03-01T06:52:58;-2.70;99.90
18753;DHT22;9505;50.882;5.350;2023-03-01T06:55:24;-2.70;99.90
18753;DHT22;9505;50.882;5.350;2023-03-01T06:57:57;-2.60;99.90
18753;DHT22;9505;50.882;5.350;2023-03-01T07:00:24;-2.60;99.90
18753;DHT22;9505;50.882;5.350;2023-03-01T07:02:50;-2.50;99.90
18753;DHT22;9505;50.882;5.350;2023-03-01T07:05:16;-2.50;99.90
18753;DHT22;9505;50.882;5.350;2023-03-01T07:07:41;-2.50;99.90
18753;DHT22;9505;50.882;5.350;2023-03-01T07:10:09;-2.40;99.90
18753;DHT22;9505;50.882;5.350;2023-03-01T07:12:35;-2.30;99.90
18753;DHT22;9505;50.882;5.350;2023-03-01T07:15:01;-2.10;99.90
18753;DHT22;9505;50.882;5.350;2023-03-01T07:17:26;-2.00;99.90
18753;DHT22;9505;50.882;5.350;2023-03-01T07:19:52;-1.80;99.90
18753;DHT22;9505;50.882;5.350;2023-03-01T07:22:17;-1.60;99.90
18753;DHT22;9505;50.882;5.350;2023-03-01T07:24:43;-1.50;99.90
18753;DHT22;9505;50.882;5.350;2023-03-01T07:27:09;-1.20;99.90
18753;DHT22;9505;50.882;5.350;2023-03-01T07:29:35;-0.90;99.90
18753;DHT22;9505;50.882;5.350;2023-03-01T07:32:02;-0.90;99.90
18753;DHT22;9505;50.882;5.350;2023-03-01T07:34:28;-0.80;99.90
18753;DHT22;9505;50.882;5.350;2023-03-01T07:36:53;-0.80;99.90
18753;DHT22;9505;50.882;5.350;2023-03-01T07:39:19;-0.70;99.90
18753;DHT22;9505;50.882;5.350;2023-03-01T07:41:45;-0.60;99.90
18753;DHT22;9505;50.882;5.350;2023-03-01T07:44:10;-0.50;99.90
18753;DHT22;9505;50.882;5.350;2023-03-01T07:46:36;-0.30;99.90
18753;DHT22;9505;50.882;5.350;2023-03-01T07:49:02;0.00;99.90
18753;DHT22;9505;50.882;5.350;2023-03-01T07:51:27;0.20;99.90
18753;DHT22;9505;50.882;5.350;2023-03-01T07:53:53;0.50;99.90
18753;DHT22;9505;50.882;5.350;2023-03-01T07:56:18;0.90;99.90
18753;DHT22;9505;50.882;5.350;2023-03-01T07:58:45;1.40;99.90
18753;DHT22;9505;50.882;5.350;2023-03-01T08:01:16;1.60;99.90
18753;DHT22;9505;50.882;5.350;2023-03-01T08:03:42;2.00;99.90
18753;DHT22;9505;50.882;5.350;2023-03-01T08:06:10;2.30;99.90
18753;DHT22;9505;50.882;5.350;2023-03-01T08:08:35;2.40;99.90
18753;DHT22;9505;50.882;5.350;2023-03-01T08:11:04;2.30;99.90
18753;DHT22;9505;50.882;5.350;2023-03-01T08:13:30;2.30;99.90
18753;DHT22;9505;50.882;5.350;2023-03-01T08:16:04;2.50;99.90
18753;DHT22;9505;50.882;5.350;2023-03-01T08:18:30;2.60;99.90
18753;DHT22;9505;50.882;5.350;2023-03-01T08:20:56;2.70;99.90
18753;DHT22;9505;50.882;5.350;2023-03-01T08:23:26;3.20;99.90
18753;DHT22;9505;50.882;5.350;2023-03-01T08:25:51;3.40;99.90
18753;DHT22;9505;50.882;5.350;2023-03-01T08:28:18;3.80;99.90
18753;DHT22;9505;50.882;5.350;2023-03-01T08:30:43;4.40;99.90
18753;DHT22;9505;50.882;5.350;2023-03-01T08:33:09;4.70;99.90
18753;DHT22;9505;50.882;5.350;2023-03-01T08:35:35;4.70;99.90
18753;DHT22;9505;50.882;5.350;2023-03-01T08:38:00;4.70;99.90
18753;DHT22;9505;50.882;5.350;2023-03-01T08:40:26;5.50;99.90
18753;DHT22;9505;50.882;5.350;2023-03-01T08:42:51;6.20;99.90
18753;DHT22;9505;50.882;5.350;2023-03-01T08:45:17;7.00;99.90
18753;DHT22;9505;50.882;5.350;2023-03-01T08:47:44;7.30;99.90
18753;DHT22;9505;50.882;5.350;2023-03-01T08:50:10;8.10;99.90
18753;DHT22;9505;50.882;5.350;2023-03-01T08:52:36;8.50;99.90
18753;DHT22;9505;50.882;5.350;2023-03-01T08:55:01;8.40;99.90
18753;DHT22;9505;50.882;5.350;2023-03-01T08:57:27;7.90;99.90
18753;DHT22;9505;50.882;5.350;2023-03-01T08:59:53;7.80;99.90
18753;DHT22;9505;50.882;5.350;2023-03-01T09:02:21;7.90;99.90
18753;DHT22;9505;50.882;5.350;2023-03-01T09:04:47;7.60;99.90
18753;DHT22;9505;50.882;5.350;2023-03-01T09:07:12;7.70;99.90
18753;DHT22;9505;50.882;5.350;2023-03-01T09:09:38;7.90;99.90
18753;DHT22;9505;50.882;5.350;2023-03-01T09:12:04;7.60;99.90
18753;DHT22;9505;50.882;5.350;2023-03-01T09:14:30;8.00;99.90
18753;DHT22;9505;50.882;5.350;2023-03-01T09:16:56;8.60;99.90
18753;DHT22;9505;50.882;5.350;2023-03-01T09:19:21;8.50;99.90
18753;DHT22;9505;50.882;5.350;2023-03-01T09:21:47;8.10;99.90
18753;DHT22;9505;50.882;5.350;2023-03-01T09:24:21;7.90;99.90
18753;DHT22;9505;50.882;5.350;2023-03-01T09:26:47;7.50;99.90
18753;DHT22;9505;50.882;5.350;2023-03-01T09:29:13;7.10;99.90
18753;DHT22;9505;50.882;5.350;2023-03-01T09:31:39;6.70;99.90
18753;DHT22;9505;50.882;5.350;2023-03-01T09:34:05;6.30;99.90
18753;DHT22;9505;50.882;5.350;2023-03-01T09:36:31;6.10;99.90
18753;DHT22;9505;50.882;5.350;2023-03-01T09:38:57;5.70;99.90
18753;DHT22;9505;50.882;5.350;2023-03-01T09:44:16;5.90;99.90
18753;DHT22;9505;50.882;5.350;2023-03-01T09:46:44;5.70;99.90
18753;DHT22;9505;50.882;5.350;2023-03-01T09:49:19;5.60;99.90
18753;DHT22;9505;50.882;5.350;2023-03-01T09:51:59;5.90;99.90
18753;DHT22;9505;50.882;5.350;2023-03-01T09:54:25;6.10;99.90
18753;DHT22;9505;50.882;5.350;2023-03-01T09:56:59;6.10;99.90
18753;DHT22;9505;50.882;5.350;2023-03-01T10:02:57;6.60;99.90
18753;DHT22;9505;50.882;5.350;2023-03-01T10:05:48;6.80;99.90
18753;DHT22;9505;50.882;5.350;2023-03-01T10:10:53;6.60;99.90
18753;DHT22;9505;50.882;5.350;2023-03-01T10:13:20;6.70;99.90
18753;DHT22;9505;50.882;5.350;2023-03-01T10:15:51;6.70;99.90
18753;DHT22;9505;50.882;5.350;2023-03-01T10:18:22;6.80;99.90
18753;DHT22;9505;50.882;5.350;2023-03-01T10:20:59;7.00;99.90
18753;DHT22;9505;50.882;5.350;2023-03-01T10:23:27;6.70;99.90
18753;DHT22;9505;50.882;5.350;2023-03-01T10:28:44;6.20;99.90
18753;DHT22;9505;50.882;5.350;2023-03-01T10:31:15;5.90;99.90
18753;DHT22;9505;50.882;5.350;2023-03-01T10:33:43;6.10;99.90
18753;DHT22;9505;50.882;5.350;2023-03-01T10:36:09;6.20;99.90
18753;DHT22;9505;50.882;5.350;2023-03-01T10:38:56;6.20;99.90
18753;DHT22;9505;50.882;5.350;2023-03-01T10:41:27;6.30;99.90
18753;DHT22;9505;50.882;5.350;2023-03-01T10:43:55;6.40;99.90
18753;DHT22;9505;50.882;5.350;2023-03-01T10:51:33;6.80;99.90
18753;DHT22;9505;50.882;5.350;2023-03-01T10:53:58;7.00;99.90
18753;DHT22;9505;50.882;5.350;2023-03-01T10:56:24;7.50;99.90
18753;DHT22;9505;50.882;5.350;2023-03-01T10:59:02;7.50;99.90
18753;DHT22;9505;50.882;5.350;2023-03-01T11:01:33;7.70;99.90
18753;DHT22;9505;50.882;5.350;2023-03-01T11:06:32;7.30;99.90
18753;DHT22;9505;50.882;5.350;2023-03-01T11:09:14;7.30;99.90
18753;DHT22;9505;50.882;5.350;2023-03-01T11:11:40;7.30;99.90
18753;DHT22;9505;50.882;5.350;2023-03-01T11:14:25;7.20;99.90
18753;DHT22;9505;50.882;5.350;2023-03-01T11:17:00;7.00;99.90
18753;DHT22;9505;50.882;5.350;2023-03-01T11:19:26;6.80;99.90
18753;DHT22;9505;50.882;5.350;2023-03-01T11:22:10;6.90;99.90
18753;DHT22;9505;50.882;5.350;2023-03-01T11:24:41;7.10;99.90
18753;DHT22;9505;50.882;5.350;2023-03-01T11:27:22;7.00;99.90
18753;DHT22;9505;50.882;5.350;2023-03-01T11:30:18;7.20;99.90
18753;DHT22;9505;50.882;5.350;2023-03-01T11:32:50;7.50;99.90
18753;DHT22;9505;50.882;5.350;2023-03-01T11:35:21;7.50;99.90
18753;DHT22;9505;50.882;5.350;2023-03-01T11:41:16;7.40;99.90
18753;DHT22;9505;50.882;5.350;2023-03-01T11:43:36;7.40;99.90
18753;DHT22;9505;50.882;5.350;2023-03-01T11:58:27;8.70;99.90
18753;DHT22;9505;50.882;5.350;2023-03-01T12:06:35;8.70;99.90
18753;DHT22;9505;50.882;5.350;2023-03-01T12:09:17;8.60;99.90
18753;DHT22;9505;50.882;5.350;2023-03-01T12:33:12;8.80;99.90
18753;DHT22;9505;50.882;5.350;2023-03-01T12:50:02;9.90;99.30
18753;DHT22;9505;50.882;5.350;2023-03-01T12:55:01;9.50;99.40
18753;DHT22;9505;50.882;5.350;2023-03-01T13:00:26;8.80;99.90
18753;DHT22;9505;50.882;5.350;2023-03-01T13:10:48;8.90;99.90
18753;DHT22;9505;50.882;5.350;2023-03-01T13:15:45;9.00;99.80
18753;DHT22;9505;50.882;5.350;2023-03-01T13:23:31;9.10;99.70
18753;DHT22;9505;50.882;5.350;2023-03-01T13:26:04;9.10;99.40
18753;DHT22;9505;50.882;5.350;2023-03-01T13:33:52;9.10;99.90
18753;DHT22;9505;50.882;5.350;2023-03-01T13:39:03;9.10;99.90
18753;DHT22;9505;50.882;5.350;2023-03-01T13:46:53;9.20;98.70
18753;DHT22;9505;50.882;5.350;2023-03-01T13:49:27;9.00;99.00
18753;DHT22;9505;50.882;5.350;2023-03-01T13:51:54;8.90;99.90
18753;DHT22;9505;50.882;5.350;2023-03-01T13:54:32;8.90;99.70
18753;DHT22;9505;50.882;5.350;2023-03-01T13:56:59;9.20;99.90
18753;DHT22;9505;50.882;5.350;2023-03-01T13:59:26;9.10;99.70
18753;DHT22;9505;50.882;5.350;2023-03-01T14:02:01;9.10;98.90
18753;DHT22;9505;50.882;5.350;2023-03-01T14:04:32;9.40;98.10
18753;DHT22;9505;50.882;5.350;2023-03-01T14:07:21;9.40;99.10
18753;DHT22;9505;50.882;5.350;2023-03-01T14:09:53;9.40;98.70
18753;DHT22;9505;50.882;5.350;2023-03-01T14:20:28;10.10;97.70
18753;DHT22;9505;50.882;5.350;2023-03-01T14:22:58;10.30;97.20
18753;DHT22;9505;50.882;5.350;2023-03-01T14:25:31;10.70;99.60
18753;DHT22;9505;50.882;5.350;2023-03-01T14:28:20;11.20;97.70
18753;DHT22;9505;50.882;5.350;2023-03-01T14:30:49;11.30;96.20
18753;DHT22;9505;50.882;5.350;2023-03-01T14:36:08;10.70;95.70
18753;DHT22;9505;50.882;5.350;2023-03-01T14:38:46;10.60;96.00
18753;DHT22;9505;50.882;5.350;2023-03-01T14:41:17;10.60;94.80
18753;DHT22;9505;50.882;5.350;2023-03-01T14:43:50;10.50;94.90
18753;DHT22;9505;50.882;5.350;2023-03-01T14:46:40;10.60;94.70
18753;DHT22;9505;50.882;5.350;2023-03-01T14:49:16;10.50;94.50
18753;DHT22;9505;50.882;5.350;2023-03-01T14:51:50;10.70;95.10
18753;DHT22;9505;50.882;5.350;2023-03-01T14:54:27;11.20;95.90
18753;DHT22;9505;50.882;5.350;2023-03-01T14:56:59;11.20;94.10
18753;DHT22;9505;50.882;5.350;2023-03-01T14:59:25;11.10;94.40
18753;DHT22;9505;50.882;5.350;2023-03-01T15:01:55;11.40;94.40
18753;DHT22;9505;50.882;5.350;2023-03-01T15:04:21;11.50;92.80
18753;DHT22;9505;50.882;5.350;2023-03-01T15:06:51;11.50;93.30
18753;DHT22;9505;50.882;5.350;2023-03-01T15:09:17;11.30;92.90
18753;DHT22;9505;50.882;5.350;2023-03-01T15:11:43;11.10;92.80
18753;DHT22;9505;50.882;5.350;2023-03-01T15:14:40;10.80;93.30
18753;DHT22;9505;50.882;5.350;2023-03-01T15:19:58;10.80;92.60
18753;DHT22;9505;50.882;5.350;2023-03-01T15:22:26;11.10;92.70
18753;DHT22;9505;50.882;5.350;2023-03-01T15:24:52;11.20;92.20
18753;DHT22;9505;50.882;5.350;2023-03-01T15:27:21;11.30;93.20
18753;DHT22;9505;50.882;5.350;2023-03-01T15:29:58;10.70;92.90
18753;DHT22;9505;50.882;5.350;2023-03-01T15:34:50;10.50;92.70
18753;DHT22;9505;50.882;5.350;2023-03-01T15:37:45;10.40;93.90
18753;DHT22;9505;50.882;5.350;2023-03-01T15:40:23;10.40;93.80
18753;DHT22;9505;50.882;5.350;2023-03-01T15:43:06;10.10;93.30
18753;DHT22;9505;50.882;5.350;2023-03-01T15:45:32;9.80;94.40
18753;DHT22;9505;50.882;5.350;2023-03-01T15:48:14;9.70;94.10
18753;DHT22;9505;50.882;5.350;2023-03-01T15:50:40;9.90;94.30
18753;DHT22;9505;50.882;5.350;2023-03-01T15:53:13;9.90;94.20
18753;DHT22;9505;50.882;5.350;2023-03-01T15:55:39;9.70;95.30
18753;DHT22;9505;50.882;5.350;2023-03-01T15:58:10;9.70;94.00
18753;DHT22;9505;50.882;5.350;2023-03-01T16:00:37;9.50;95.10
18753;DHT22;9505;50.882;5.350;2023-03-01T16:03:04;9.50;94.90
18753;DHT22;9505;50.882;5.350;2023-03-01T16:05:32;9.60;94.80
18753;DHT22;9505;50.882;5.350;2023-03-01T16:07:59;9.30;95.00
18753;DHT22;9505;50.882;5.350;2023-03-01T16:10:26;9.20;95.40
18753;DHT22;9505;50.882;5.350;2023-03-01T16:12:53;9.30;95.70
18753;DHT22;9505;50.882;5.350;2023-03-01T16:15:21;9.40;95.40
18753;DHT22;9505;50.882;5.350;2023-03-01T16:17:47;9.40;95.60
18753;DHT22;9505;50.882;5.350;2023-03-01T16:20:13;9.20;95.50
18753;DHT22;9505;50.882;5.350;2023-03-01T16:22:42;9.00;96.40
18753;DHT22;9505;50.882;5.350;2023-03-01T16:25:15;8.80;95.90
18753;DHT22;9505;50.882;5.350;2023-03-01T16:27:43;8.60;96.00
18753;DHT22;9505;50.882;5.350;2023-03-01T16:30:10;8.40;96.40
18753;DHT22;9505;50.882;5.350;2023-03-01T16:32:43;8.30;96.60
18753;DHT22;9505;50.882;5.350;2023-03-01T16:35:11;8.40;96.60
18753;DHT22;9505;50.882;5.350;2023-03-01T16:37:37;8.40;97.00
18753;DHT22;9505;50.882;5.350;2023-03-01T16:40:04;8.40;96.50
18753;DHT22;9505;50.882;5.350;2023-03-01T16:42:36;8.10;96.70
18753;DHT22;9505;50.882;5.350;2023-03-01T16:45:03;7.70;97.40
18753;DHT22;9505;50.882;5.350;2023-03-01T16:47:29;7.70;97.80
18753;DHT22;9505;50.882;5.350;2023-03-01T16:49:55;7.50;98.20
18753;DHT22;9505;50.882;5.350;2023-03-01T16:52:21;7.40;98.40
18753;DHT22;9505;50.882;5.350;2023-03-01T16:54:48;7.10;98.50
18753;DHT22;9505;50.882;5.350;2023-03-01T16:57:14;6.90;99.10
18753;DHT22;9505;50.882;5.350;2023-03-01T16:59:39;6.60;99.70
18753;DHT22;9505;50.882;5.350;2023-03-01T17:02:08;6.40;99.90
18753;DHT22;9505;50.882;5.350;2023-03-01T17:04:36;6.30;99.90
18753;DHT22;9505;50.882;5.350;2023-03-01T17:07:02;6.00;99.90
18753;DHT22;9505;50.882;5.350;2023-03-01T17:09:27;5.90;99.90
18753;DHT22;9505;50.882;5.350;2023-03-01T17:11:53;5.80;99.90
18753;DHT22;9505;50.882;5.350;2023-03-01T17:14:20;5.60;99.90
18753;DHT22;9505;50.882;5.350;2023-03-01T17:16:45;5.50;99.90
18753;DHT22;9505;50.882;5.350;2023-03-01T17:19:11;5.50;99.90
18753;DHT22;9505;50.882;5.350;2023-03-01T17:21:43;5.50;99.90
18753;DHT22;9505;50.882;5.350;2023-03-01T17:24:09;5.40;99.90
18753;DHT22;9505;50.882;5.350;2023-03-01T17:26:34;5.30;99.90
18753;DHT22;9505;50.882;5.350;2023-03-01T17:29:01;5.20;99.90
18753;DHT22;9505;50.882;5.350;2023-03-01T17:31:28;5.10;99.90
18753;DHT22;9505;50.882;5.350;2023-03-01T17:33:53;5.00;99.90
18753;DHT22;9505;50.882;5.350;2023-03-01T17:36:19;4.90;99.90
18753;DHT22;9505;50.882;5.350;2023-03-01T17:38:45;4.90;99.90
18753;DHT22;9505;50.882;5.350;2023-03-01T17:41:11;4.80;99.90
18753;DHT22;9505;50.882;5.350;2023-03-01T17:43:37;4.80;99.90
18753;DHT22;9505;50.882;5.350;2023-03-01T17:46:03;4.80;99.90
18753;DHT22;9505;50.882;5.350;2023-03-01T17:48:29;4.70;99.90
18753;DHT22;9505;50.882;5.350;2023-03-01T17:50:55;4.70;99.90
18753;DHT22;9505;50.882;5.350;2023-03-01T17:53:20;4.70;99.90
18753;DHT22;9505;50.882;5.350;2023-03-01T17:55:46;4.60;99.90
18753;DHT22;9505;50.882;5.350;2023-03-01T17:58:19;4.60;99.90
18753;DHT22;9505;50.882;5.350;2023-03-01T18:00:48;4.50;99.90
18753;DHT22;9505;50.882;5.350;2023-03-01T18:03:15;4.50;99.90
18753;DHT22;9505;50.882;5.350;2023-03-01T18:05:41;4.50;99.90
18753;DHT22;9505;50.882;5.350;2023-03-01T18:08:06;4.50;99.90
18753;DHT22;9505;50.882;5.350;2023-03-01T18:10:33;4.40;99.90
18753;DHT22;9505;50.882;5.350;2023-03-01T18:13:01;4.40;99.90
18753;DHT22;9505;50.882;5.350;2023-03-01T18:15:27;4.30;99.90
18753;DHT22;9505;50.882;5.350;2023-03-01T18:17:53;4.20;99.90
18753;DHT22;9505;50.882;5.350;2023-03-01T18:20:19;4.20;99.90
18753;DHT22;9505;50.882;5.350;2023-03-01T18:22:45;4.20;99.90
18753;DHT22;9505;50.882;5.350;2023-03-01T18:25:12;4.10;99.90
18753;DHT22;9505;50.882;5.350;2023-03-01T18:27:38;4.10;99.90